createdAt,value
2019-02-17T00:02:37.342Z,1.00
2019-02-17T00:05:18.000Z,1.00
2019-02-17T00:08:02.545Z,1.30
2019-02-17T00:10:30.984Z,0.80
2019-02-17T00:13:18.728Z,0.80
2019-02-17T00:16:25.808Z,0.90
2019-02-17T00:19:34.360Z,0.70
2019-02-17T00:22:22.101Z,0.70
2019-02-17T00:25:09.926Z,0.60
2019-02-17T00:27:57.669Z,1.40
2019-02-17T00:30:45.415Z,0.80
2019-02-17T00:33:33.156Z,0.70
2019-02-17T00:36:20.904Z,1.10
2019-02-17T00:39:27.975Z,0.70
2019-02-17T00:42:15.716Z,0.70
2019-02-17T00:45:03.544Z,0.70
2019-02-17T00:47:51.498Z,0.60
2019-02-17T00:50:39.227Z,0.60
2019-02-17T00:53:20.261Z,0.80
2019-02-17T00:56:00.808Z,0.60
2019-02-17T00:58:41.652Z,0.80
2019-02-17T01:01:22.291Z,0.60
2019-02-17T01:04:03.060Z,0.50
2019-02-17T01:06:44.164Z,0.50
2019-02-17T01:09:24.749Z,0.50
2019-02-17T01:12:08.242Z,0.50
2019-02-17T01:14:48.483Z,0.50
2019-02-17T01:17:29.329Z,0.40
2019-02-17T01:20:09.961Z,0.40
2019-02-17T01:22:50.840Z,0.30
2019-02-17T01:25:31.915Z,0.30
2019-02-17T01:28:12.620Z,0.20
2019-02-17T01:30:53.468Z,0.20
2019-02-17T01:33:34.192Z,0.20
2019-02-17T01:36:14.932Z,0.30
2019-02-17T01:38:55.588Z,0.10
2019-02-17T01:41:36.336Z,0.20
2019-02-17T01:44:17.100Z,0.10
2019-02-17T01:46:57.684Z,0.10
2019-02-17T01:49:38.639Z,0.10
2019-02-17T01:52:19.445Z,0.10
2019-02-17T01:55:00.353Z,0.20
2019-02-17T01:57:41.233Z,0.00
2019-02-17T02:00:25.400Z,0.00
2019-02-17T02:03:06.085Z,0.00
2019-02-17T02:05:52.772Z,0.00
2019-02-17T02:08:33.333Z,0.00
2019-02-17T02:11:13.667Z,0.00
2019-02-17T02:13:54.528Z,0.00
2019-02-17T02:16:34.964Z,0.00
2019-02-17T02:19:15.556Z,-0.10
2019-02-17T02:21:56.416Z,-0.10
2019-02-17T02:24:37.341Z,-0.10
2019-02-17T02:27:18.014Z,-0.10
2019-02-17T02:29:58.556Z,-0.10
2019-02-17T02:32:39.010Z,-0.10
2019-02-17T02:35:19.901Z,-0.20
2019-02-17T02:38:00.445Z,-0.20
2019-02-17T02:40:41.212Z,-0.20
2019-02-17T02:43:22.198Z,-0.30
2019-02-17T02:46:03.030Z,-0.30
2019-02-17T02:48:44.279Z,-0.30
2019-02-17T02:51:25.065Z,-0.30
2019-02-17T02:54:05.853Z,-0.30
2019-02-17T02:56:46.981Z,-0.30
2019-02-17T02:59:27.772Z,-0.30
2019-02-17T03:02:08.472Z,-0.30
2019-02-17T03:04:49.220Z,-0.10
2019-02-17T03:07:30.084Z,-0.30
2019-02-17T03:10:10.908Z,-0.30
2019-02-17T03:12:51.782Z,-0.40
2019-02-17T03:15:32.804Z,-0.40
2019-02-17T03:18:13.768Z,-0.40
2019-02-17T03:20:54.757Z,-0.40
2019-02-17T03:23:35.621Z,-0.20
2019-02-17T03:26:16.076Z,-0.20
2019-02-17T03:28:56.972Z,-0.20
2019-02-17T03:31:37.681Z,-0.40
2019-02-17T03:34:18.564Z,-0.50
2019-02-17T03:36:59.404Z,-0.40
2019-02-17T03:39:40.181Z,-0.20
2019-02-17T03:42:20.695Z,-0.50
2019-02-17T03:45:01.309Z,-0.50
2019-02-17T03:47:42.071Z,-0.50
2019-02-17T03:50:22.531Z,-0.50
2019-02-17T03:56:15.529Z,-0.60
2019-02-17T03:58:56.024Z,-0.60
2019-02-17T04:01:36.456Z,-0.60
2019-02-17T04:04:17.384Z,-0.50
2019-02-17T04:06:58.415Z,-0.70
2019-02-17T04:09:39.297Z,-0.70
2019-02-17T04:12:20.271Z,-0.70
2019-02-17T04:15:00.576Z,-0.70
2019-02-17T04:17:41.413Z,-0.80
2019-02-17T04:20:09.920Z,-0.80
2019-02-17T04:22:57.728Z,-0.80
2019-02-17T04:25:45.488Z,-0.80
2019-02-17T04:28:52.417Z,-0.80
2019-02-17T04:31:40.174Z,-0.80
2019-02-17T04:34:27.917Z,-0.90
2019-02-17T04:37:15.672Z,-0.90
2019-02-17T04:39:56.171Z,-1.00
2019-02-17T04:42:36.594Z,-1.00
2019-02-17T04:45:17.293Z,-1.20
2019-02-17T04:47:57.868Z,-1.20
2019-02-17T04:50:38.697Z,-1.30
2019-02-17T04:53:19.604Z,-1.30
2019-02-17T04:55:59.794Z,-1.20
2019-02-17T04:58:40.859Z,-1.30
2019-02-17T05:01:21.849Z,-1.40
2019-02-17T05:04:02.613Z,-1.50
2019-02-17T05:06:43.086Z,-1.50
2019-02-17T05:09:23.545Z,-1.40
2019-02-17T05:12:04.433Z,-1.40
2019-02-17T05:14:44.853Z,-1.30
2019-02-17T05:17:25.697Z,-1.30
2019-02-17T05:20:06.149Z,-1.20
2019-02-17T05:22:47.138Z,-1.20
2019-02-17T05:25:28.089Z,-1.20
2019-02-17T05:28:08.822Z,-1.20
2019-02-17T05:30:53.005Z,-1.20
2019-02-17T05:33:31.736Z,-1.20
2019-02-17T05:36:12.661Z,-1.20
2019-02-17T05:38:53.538Z,-1.20
2019-02-17T05:41:21.985Z,-1.20
2019-02-17T05:44:09.805Z,-1.20
2019-02-17T05:46:57.560Z,-1.20
2019-02-17T05:49:45.320Z,-1.10
2019-02-17T05:52:33.051Z,-0.80
2019-02-17T05:55:20.910Z,-1.30
2019-02-17T05:58:08.643Z,-1.20
2019-02-17T06:01:03.792Z,-1.30
2019-02-17T06:03:45.948Z,-1.10
2019-02-17T06:06:33.715Z,-1.40
2019-02-17T06:09:21.555Z,-1.40
2019-02-17T06:11:49.956Z,-1.30
2019-02-17T06:14:37.708Z,-1.30
2019-02-17T06:17:25.456Z,-1.30
2019-02-17T06:20:13.390Z,-1.40
2019-02-17T06:22:41.819Z,-1.40
2019-02-17T06:25:29.577Z,-1.40
2019-02-17T06:27:57.976Z,-1.40
2019-02-17T06:30:39.208Z,-1.40
2019-02-17T06:33:20.235Z,-1.40
2019-02-17T06:36:01.045Z,-1.30
2019-02-17T06:38:45.479Z,-1.30
2019-02-17T06:41:25.692Z,-1.30
2019-02-17T06:46:57.339Z,-1.20
2019-02-17T06:49:56.966Z,-1.20
2019-02-17T06:52:37.246Z,-1.20
2019-02-17T06:58:12.424Z,-1.10
2019-02-17T07:00:53.096Z,-1.00
2019-02-17T07:03:33.786Z,-0.90
2019-02-17T07:06:16.179Z,-0.90
2019-02-17T07:08:57.282Z,-0.80
2019-02-17T07:11:37.676Z,-0.70
2019-02-17T07:14:18.481Z,-0.60
2019-02-17T07:16:59.273Z,-0.60
2019-02-17T07:19:40.228Z,-0.50
2019-02-17T07:22:08.655Z,-0.40
2019-02-17T07:24:56.412Z,-0.30
2019-02-17T07:27:56.027Z,-0.20
2019-02-17T07:30:36.373Z,-0.10
2019-02-17T07:33:20.612Z,0.00
2019-02-17T07:36:00.937Z,0.10
2019-02-17T07:44:18.146Z,0.50
2019-02-17T07:47:18.166Z,0.70
2019-02-17T07:49:59.556Z,0.80
2019-02-17T07:52:40.305Z,1.00
2019-02-17T07:55:21.218Z,1.20
2019-02-17T07:58:01.829Z,1.40
2019-02-17T08:00:42.830Z,1.60
2019-02-17T08:03:23.589Z,1.80
2019-02-17T08:06:04.397Z,2.00
2019-02-17T08:08:45.412Z,2.10
2019-02-17T08:11:45.806Z,2.20
2019-02-17T08:17:08.499Z,2.60
2019-02-17T08:19:49.608Z,2.70
2019-02-17T08:22:30.492Z,3.40
2019-02-17T08:25:19.356Z,3.00
2019-02-17T08:27:53.901Z,3.20
2019-02-17T08:30:34.415Z,3.40
2019-02-17T08:33:15.313Z,3.60
2019-02-17T08:35:56.222Z,3.70
2019-02-17T08:38:36.395Z,3.90
2019-02-17T08:41:16.963Z,4.10
2019-02-17T08:43:57.755Z,4.30
2019-02-17T08:46:38.369Z,4.40
2019-02-17T08:49:38.480Z,4.60
2019-02-17T08:52:18.917Z,4.70
2019-02-17T08:54:59.184Z,4.90
2019-02-17T08:57:39.870Z,5.00
2019-02-17T09:00:20.752Z,5.20
2019-02-17T09:03:01.188Z,5.30
2019-02-17T09:08:23.888Z,5.70
2019-02-17T09:11:04.524Z,5.80
2019-02-17T09:13:32.955Z,6.00
2019-02-17T09:16:20.708Z,6.10
2019-02-17T09:19:08.457Z,6.20
2019-02-17T09:21:56.408Z,6.40
2019-02-17T09:24:44.169Z,6.60
2019-02-17T09:27:31.907Z,7.00
2019-02-17T09:30:19.668Z,7.10
2019-02-17T09:33:07.400Z,7.10
2019-02-17T09:35:48.072Z,7.30
2019-02-17T09:38:28.553Z,7.40
2019-02-17T09:41:09.206Z,7.50
2019-02-17T09:46:31.945Z,7.80
2019-02-17T09:49:12.651Z,8.10
2019-02-17T09:51:53.792Z,8.10
2019-02-17T09:54:34.420Z,8.40
2019-02-17T09:57:15.248Z,8.50
2019-02-17T09:59:56.331Z,8.70
2019-02-17T10:02:37.297Z,8.80
2019-02-17T10:05:37.360Z,9.50
2019-02-17T10:08:17.782Z,9.20
2019-02-17T10:11:17.932Z,9.30
2019-02-17T10:13:58.588Z,9.40
2019-02-17T10:16:58.821Z,9.50
2019-02-17T10:19:39.009Z,9.60
2019-02-17T10:22:20.059Z,9.80
2019-02-17T10:25:00.751Z,9.90
2019-02-17T10:27:41.317Z,10.00
2019-02-17T10:30:41.323Z,10.10
2019-02-17T10:33:21.833Z,10.20
2019-02-17T10:36:02.751Z,10.40
2019-02-17T10:38:43.408Z,10.70
2019-02-17T10:41:24.376Z,10.60
2019-02-17T10:47:07.585Z,10.80
2019-02-17T10:50:07.517Z,10.90
2019-02-17T10:52:48.028Z,11.10
2019-02-17T10:55:28.773Z,11.30
2019-02-17T10:58:09.773Z,11.40
2019-02-17T11:00:50.671Z,11.50
2019-02-17T11:03:31.644Z,11.60
2019-02-17T11:06:12.388Z,11.60
2019-02-17T11:09:12.665Z,11.70
2019-02-17T11:11:53.261Z,11.80
2019-02-17T11:14:33.656Z,11.80
2019-02-17T11:17:14.757Z,11.90
2019-02-17T11:19:55.615Z,11.90
2019-02-17T11:22:36.453Z,12.00
2019-02-17T11:25:36.332Z,12.10
2019-02-17T11:28:16.872Z,12.20
2019-02-17T11:30:57.592Z,12.20
2019-02-17T11:33:57.552Z,12.30
2019-02-17T11:36:25.971Z,12.30
2019-02-17T11:39:08.620Z,12.30
2019-02-17T11:42:08.776Z,12.30
2019-02-17T11:44:49.364Z,12.70
2019-02-17T11:47:29.998Z,12.40
2019-02-17T11:50:10.857Z,12.50
2019-02-17T11:52:51.720Z,12.60
2019-02-17T11:55:32.653Z,12.60
2019-02-17T11:58:12.839Z,12.90
2019-02-17T12:00:53.700Z,12.60
2019-02-17T12:03:53.711Z,12.70
2019-02-17T12:06:53.640Z,12.80
2019-02-17T12:09:34.527Z,12.80
2019-02-17T12:12:34.229Z,12.90
2019-02-17T12:15:14.752Z,13.00
2019-02-17T12:17:55.307Z,13.10
2019-02-17T12:20:55.268Z,13.10
2019-02-17T12:23:37.271Z,13.20
2019-02-17T12:26:22.810Z,13.20
2019-02-17T12:29:05.460Z,13.50
2019-02-17T12:31:47.018Z,13.30
2019-02-17T12:34:27.536Z,13.80
2019-02-17T12:37:08.112Z,13.40
2019-02-17T12:39:49.030Z,13.60
2019-02-17T12:42:29.897Z,13.50
2019-02-17T12:45:10.630Z,13.50
2019-02-17T12:47:57.880Z,13.50
2019-02-17T12:50:34.484Z,13.60
2019-02-17T12:53:15.208Z,13.60
2019-02-17T12:55:55.816Z,13.60
2019-02-17T12:58:36.378Z,13.60
2019-02-17T13:01:17.273Z,13.70
2019-02-17T13:03:58.215Z,13.70
2019-02-17T13:09:21.280Z,13.70
2019-02-17T13:12:01.601Z,13.70
2019-02-17T13:14:42.113Z,13.80
2019-02-17T13:17:22.611Z,14.10
2019-02-17T13:20:03.165Z,13.90
2019-02-17T13:22:43.871Z,14.00
2019-02-17T13:25:24.367Z,13.80
2019-02-17T13:28:05.428Z,13.80
2019-02-17T13:30:46.455Z,13.80
2019-02-17T13:33:27.366Z,13.80
2019-02-17T13:36:07.932Z,13.90
2019-02-17T13:41:30.470Z,14.00
2019-02-17T13:44:10.929Z,14.00
2019-02-17T13:46:51.524Z,14.00
2019-02-17T13:49:32.355Z,14.00
2019-02-17T13:52:13.379Z,14.00
2019-02-17T13:54:54.399Z,14.00
2019-02-17T13:57:34.958Z,14.10
2019-02-17T14:00:15.542Z,14.10
2019-02-17T14:02:55.912Z,14.00
2019-02-17T14:05:36.216Z,14.20
2019-02-17T14:08:16.907Z,14.10
2019-02-17T14:10:57.784Z,14.10
2019-02-17T14:13:38.488Z,14.10
2019-02-17T14:16:19.193Z,14.10
2019-02-17T14:19:00.021Z,14.10
2019-02-17T14:21:40.881Z,14.10
2019-02-17T14:24:21.796Z,14.10
2019-02-17T14:27:02.801Z,14.10
2019-02-17T14:29:43.461Z,14.00
2019-02-17T14:32:24.358Z,14.10
2019-02-17T14:35:04.877Z,14.00
2019-02-17T14:37:45.758Z,14.00
2019-02-17T14:40:26.212Z,13.90
2019-02-17T14:43:06.677Z,13.80
2019-02-17T14:45:47.447Z,13.90
2019-02-17T14:48:28.294Z,13.90
2019-02-17T14:51:09.088Z,13.80
2019-02-17T14:53:49.733Z,13.80
2019-02-17T14:56:30.281Z,13.80
2019-02-17T14:59:11.256Z,13.70
2019-02-17T15:01:52.056Z,13.70
2019-02-17T15:04:33.052Z,13.70
2019-02-17T15:07:13.772Z,13.60
2019-02-17T15:09:54.352Z,13.60
2019-02-17T15:15:47.364Z,13.60
2019-02-17T15:18:28.180Z,13.50
2019-02-17T15:21:08.532Z,13.50
2019-02-17T15:23:49.214Z,13.40
2019-02-17T15:26:30.222Z,13.50
2019-02-17T15:29:11.181Z,13.40
2019-02-17T15:31:51.619Z,13.30
2019-02-17T15:34:32.362Z,13.20
2019-02-17T15:37:12.989Z,13.20
2019-02-17T15:39:53.605Z,13.00
2019-02-17T15:42:34.476Z,13.10
2019-02-17T15:45:15.188Z,13.00
2019-02-17T15:47:56.191Z,12.90
2019-02-17T15:51:06.031Z,12.80
2019-02-17T15:53:38.455Z,12.80
2019-02-17T15:56:06.869Z,12.70
2019-02-17T15:59:13.936Z,12.60
2019-02-17T16:02:21.005Z,12.60
2019-02-17T16:04:49.423Z,12.60
2019-02-17T16:07:37.167Z,12.50
2019-02-17T16:10:24.920Z,12.40
2019-02-17T16:13:12.676Z,12.30
2019-02-17T16:16:00.444Z,12.30
2019-02-17T16:18:48.184Z,12.50
2019-02-17T16:21:35.956Z,12.10
2019-02-17T16:24:23.695Z,11.90
2019-02-17T16:27:11.448Z,11.80
2019-02-17T16:29:59.205Z,12.10
2019-02-17T16:32:46.952Z,11.60
2019-02-17T16:35:34.716Z,11.40
2019-02-17T16:38:22.458Z,11.30
2019-02-17T16:41:10.217Z,11.20
2019-02-17T16:43:57.957Z,11.00
2019-02-17T16:46:45.707Z,10.90
2019-02-17T16:49:33.449Z,10.60
2019-02-17T16:52:21.199Z,10.50
2019-02-17T16:55:01.571Z,10.30
2019-02-17T16:57:42.130Z,10.10
2019-02-17T17:00:25.903Z,10.00
2019-02-17T17:03:06.671Z,9.90
2019-02-17T17:05:47.348Z,9.80
2019-02-17T17:08:27.852Z,9.70
2019-02-17T17:11:08.568Z,9.70
2019-02-17T17:13:49.268Z,9.40
2019-02-17T17:16:29.764Z,9.30
2019-02-17T17:19:10.115Z,9.10
2019-02-17T17:21:50.815Z,8.90
2019-02-17T17:24:31.684Z,8.90
2019-02-17T17:27:12.228Z,8.70
2019-02-17T17:29:52.493Z,8.50
2019-02-17T17:32:33.159Z,8.50
2019-02-17T17:35:14.168Z,8.30
2019-02-17T17:37:55.253Z,8.20
2019-02-17T17:40:36.137Z,8.10
2019-02-17T17:43:16.375Z,7.80
2019-02-17T17:45:57.215Z,7.70
2019-02-17T17:48:38.033Z,7.60
2019-02-17T17:51:18.712Z,7.50
2019-02-17T17:53:59.493Z,7.30
2019-02-17T17:59:22.296Z,7.10
2019-02-17T18:02:02.969Z,7.00
2019-02-17T18:04:43.845Z,6.90
2019-02-17T18:10:06.889Z,6.80
2019-02-17T18:12:47.750Z,6.60
2019-02-17T18:15:28.728Z,6.60
2019-02-17T18:18:09.539Z,6.50
2019-02-17T18:20:50.104Z,6.50
2019-02-17T18:23:31.025Z,6.60
2019-02-17T18:26:11.953Z,6.20
2019-02-17T18:28:52.598Z,6.00
2019-02-17T18:31:33.407Z,6.20
2019-02-17T18:34:13.931Z,5.90
2019-02-17T18:37:13.950Z,5.80
2019-02-17T18:39:54.341Z,5.80
2019-02-17T18:42:34.678Z,5.70
2019-02-17T18:45:13.854Z,5.80
2019-02-17T18:48:01.599Z,5.70
2019-02-17T18:50:58.762Z,5.60
2019-02-17T18:53:38.808Z,5.50
2019-02-17T18:56:26.552Z,5.40
2019-02-17T18:59:14.320Z,5.40
2019-02-17T19:02:02.092Z,5.20
2019-02-17T19:04:49.844Z,5.20
2019-02-17T19:07:37.592Z,5.10
2019-02-17T19:10:25.344Z,5.00
2019-02-17T19:13:13.103Z,4.90
2019-02-17T19:16:00.851Z,4.80
2019-02-17T19:18:48.592Z,4.80
2019-02-17T19:21:36.328Z,4.70
2019-02-17T19:24:24.080Z,5.00
2019-02-17T19:27:11.820Z,4.60
2019-02-17T19:29:59.571Z,4.50
2019-02-17T19:32:47.877Z,4.50
2019-02-17T19:35:42.090Z,4.40
2019-02-17T19:38:25.099Z,4.40
2019-02-17T19:41:12.841Z,4.40
2019-02-17T19:43:53.248Z,4.20
2019-02-17T19:46:34.067Z,4.10
2019-02-17T19:49:14.855Z,4.20
2019-02-17T19:51:55.669Z,4.00
2019-02-17T19:54:36.525Z,3.90
2019-02-17T19:57:17.531Z,3.90
2019-02-17T20:02:52.184Z,3.80
2019-02-17T20:05:35.388Z,4.00
2019-02-17T20:08:35.458Z,3.80
2019-02-17T20:11:16.087Z,3.70
2019-02-17T20:13:56.285Z,3.60
2019-02-17T20:16:36.984Z,3.60
2019-02-17T20:19:17.701Z,3.60
2019-02-17T20:21:58.469Z,3.50
2019-02-17T20:24:39.489Z,3.40
2019-02-17T20:27:20.228Z,3.40
2019-02-17T20:30:01.120Z,3.50
2019-02-17T20:33:00.837Z,3.40
2019-02-17T20:35:41.435Z,3.40
2019-02-17T20:38:22.373Z,3.20
2019-02-17T20:41:03.065Z,3.30
2019-02-17T20:43:43.958Z,3.20
2019-02-17T20:46:24.612Z,3.10
2019-02-17T20:49:05.174Z,3.10
2019-02-17T20:51:45.896Z,3.10
2019-02-17T20:57:22.379Z,3.10
2019-02-17T21:03:37.263Z,3.00
2019-02-17T21:06:25.019Z,3.00
2019-02-17T21:09:12.839Z,2.90
2019-02-17T21:12:00.715Z,2.80
2019-02-17T21:14:48.456Z,2.80
2019-02-17T21:17:36.207Z,2.70
2019-02-17T21:20:24.088Z,2.60
2019-02-17T21:23:11.840Z,2.50
2019-02-17T21:25:59.587Z,2.50
2019-02-17T21:28:47.336Z,2.50
2019-02-17T21:31:35.080Z,2.40
2019-02-17T21:34:22.830Z,2.50
2019-02-17T21:37:03.512Z,2.40
2019-02-17T21:39:44.123Z,2.40
2019-02-17T21:42:24.727Z,2.40
2019-02-17T21:45:05.455Z,2.30
2019-02-17T21:47:46.292Z,2.60
2019-02-17T21:50:27.026Z,2.30
2019-02-17T21:53:10.401Z,2.20
2019-02-17T21:55:50.650Z,2.20
2019-02-17T21:58:31.335Z,2.10
2019-02-17T22:01:12.300Z,2.10
2019-02-17T22:03:53.263Z,2.20
2019-02-17T22:06:34.228Z,2.10
2019-02-17T22:09:14.833Z,2.00
2019-02-17T22:11:55.982Z,2.00
2019-02-17T22:14:37.079Z,1.90
2019-02-17T22:17:18.080Z,1.90
2019-02-17T22:19:58.882Z,1.90
2019-02-17T22:22:37.595Z,1.90
2019-02-17T22:25:25.341Z,1.90
2019-02-17T22:27:53.757Z,1.80
2019-02-17T22:30:41.502Z,1.80
2019-02-17T22:33:22.580Z,1.70
2019-02-17T22:36:02.747Z,1.70
2019-02-17T22:38:43.739Z,1.70
2019-02-17T22:41:24.495Z,1.60
2019-02-17T22:44:05.178Z,1.60
2019-02-17T22:46:45.907Z,1.50
2019-02-17T22:49:26.576Z,1.50
2019-02-17T22:52:07.419Z,1.50
2019-02-17T22:54:47.966Z,1.70
2019-02-17T22:57:28.864Z,1.50
2019-02-17T23:00:09.361Z,1.40
2019-02-17T23:02:50.235Z,1.50
2019-02-17T23:05:33.774Z,1.40
2019-02-17T23:08:14.038Z,1.30
2019-02-17T23:13:37.157Z,1.30
2019-02-17T23:16:17.918Z,1.20
2019-02-17T23:18:58.820Z,1.10
2019-02-17T23:21:39.535Z,1.10
2019-02-17T23:24:20.265Z,1.10
2019-02-17T23:27:01.068Z,1.10
2019-02-17T23:29:41.571Z,1.00
2019-02-17T23:32:22.222Z,1.00
2019-02-17T23:35:02.881Z,1.00
2019-02-17T23:38:02.780Z,0.90
2019-02-17T23:40:43.639Z,0.90
2019-02-17T23:43:43.821Z,0.80
2019-02-17T23:46:25.888Z,0.70
2019-02-17T23:49:07.005Z,0.60
2019-02-17T23:54:42.276Z,0.60
2019-02-17T23:57:30.016Z,0.70
